Time;durP1;ratioP1;P1;durP2;ratioP2;P2;SDS_P1;SDS_P2;PMS_P1;PMS_P2;Temp;Humidity;BMP_temperature;BMP_pressure;BME280_temperature;BME280_humidity;BME280_pressure;Samples;Min_cycle;Max_cycle;Signal;HPM_P1;HPM_P2
2023/11/10 00:02:28;;;;;;;17.50;11.00;;;;;;;7.50;93.39;99867.58;105431;1258;99071;-77
2023/11/10 00:05:13;;;;;;;16.90;10.40;;;;;;;7.50;93.38;99865.82;105490;1255;99174;-77
2023/11/10 00:07:59;;;;;;;20.10;11.60;;;;;;;7.50;93.14;99867.95;105572;1255;97957;-77
2023/11/10 00:10:45;;;;;;;18.10;11.30;;;;;;;7.50;93.43;99872.02;105698;1259;97750;-77
2023/11/10 00:13:31;;;;;;;18.60;10.00;;;;;;;7.52;93.55;99870.77;105548;1258;101331;-77
2023/11/10 00:16:18;;;;;;;19.80;11.30;;;;;;;7.53;93.49;99864.77;105619;1260;100333;-77
2023/11/10 00:19:07;;;;;;;18.10;11.10;;;;;;;7.53;93.50;99858.92;105662;1258;98469;-78
2023/11/10 00:21:53;;;;;;;17.30;9.70;;;;;;;7.54;93.56;99858.70;105575;1255;97877;-77
2023/11/10 00:24:45;;;;;;;15.00;9.60;;;;;;;7.56;93.52;99854.95;105516;1259;99388;-77
2023/11/10 00:27:32;;;;;;;20.00;10.00;;;;;;;7.58;93.67;99854.29;105516;1254;101366;-78
2023/11/10 00:30:19;;;;;;;15.90;9.80;;;;;;;7.60;93.37;99848.39;105633;1257;99042;-78
2023/11/10 00:33:04;;;;;;;17.00;9.80;;;;;;;7.60;93.28;99845.20;105776;1260;98078;-78
2023/11/10 00:35:50;;;;;;;19.50;10.00;;;;;;;7.62;93.37;99843.35;105775;1258;97988;-78
2023/11/10 00:38:35;;;;;;;16.40;9.60;;;;;;;7.64;93.21;99841.70;105793;1255;98507;-77
2023/11/10 00:41:21;;;;;;;18.90;10.20;;;;;;;7.65;93.08;99839.95;105988;1254;101367;-78
2023/11/10 00:44:10;;;;;;;17.10;9.30;;;;;;;7.66;93.08;99838.31;106294;1260;100891;-78
2023/11/10 00:46:56;;;;;;;17.20;10.80;;;;;;;7.66;92.91;99834.67;105715;1255;98525;-79
2023/11/10 00:49:41;;;;;;;20.20;10.70;;;;;;;7.66;92.72;99826.00;105683;1254;98133;-79
2023/11/10 00:52:26;;;;;;;18.40;9.70;;;;;;;7.66;92.82;99828.63;105866;1257;98495;-78
2023/11/10 00:55:12;;;;;;;16.60;10.00;;;;;;;7.66;92.78;99824.37;105721;1261;102457;-79
2023/11/10 00:57:58;;;;;;;15.70;9.80;;;;;;;7.66;92.74;99825.23;105782;1258;99372;-79
2023/11/10 01:00:44;;;;;;;18.80;10.20;;;;;;;7.66;92.77;99822.06;105797;1254;99061;-79
2023/11/10 01:03:29;;;;;;;19.50;10.10;;;;;;;7.65;92.54;99821.98;105770;1258;98319;-78
2023/11/10 01:06:15;;;;;;;20.40;11.20;;;;;;;7.63;92.45;99821.17;105866;1260;97887;-78
2023/11/10 01:09:02;;;;;;;15.50;9.80;;;;;;;7.58;92.40;99818.58;106390;1254;101331;-78
2023/11/10 01:11:48;;;;;;;18.70;9.80;;;;;;;7.56;92.27;99818.00;105828;1257;99147;-78
2023/11/10 01:14:34;;;;;;;17.50;10.40;;;;;;;7.53;92.24;99821.77;105716;1260;98026;-79
2023/11/10 01:17:19;;;;;;;17.80;9.80;;;;;;;7.49;92.39;99820.96;105816;1255;97942;-78
2023/11/10 01:20:07;;;;;;;17.80;9.60;;;;;;;7.48;92.36;99821.80;105835;1254;97962;-79
2023/11/10 01:22:54;;;;;;;18.30;11.20;;;;;;;7.47;92.12;99820.64;105842;1257;101385;-79
2023/11/10 01:25:40;;;;;;;16.80;9.20;;;;;;;7.46;92.23;99819.06;105729;1257;99067;-79
2023/11/10 01:28:25;;;;;;;16.60;9.00;;;;;;;7.44;92.12;99812.57;105703;1265;99017;-79
2023/11/10 01:31:14;;;;;;;18.60;9.80;;;;;;;7.42;92.01;99807.46;105789;1255;98603;-79
2023/11/10 01:33:59;;;;;;;18.30;10.70;;;;;;;7.40;92.13;99800.83;105653;1275;98118;-78
2023/11/10 01:36:45;;;;;;;17.10;10.40;;;;;;;7.36;92.27;99796.77;105736;1254;102710;-78
2023/11/10 01:39:30;;;;;;;15.60;10.30;;;;;;;7.33;92.00;99793.52;105827;1254;100329;-78
2023/11/10 01:42:16;;;;;;;18.50;10.80;;;;;;;7.30;92.34;99796.08;105777;1254;99495;-78
2023/11/10 01:45:02;;;;;;;17.80;10.90;;;;;;;7.28;92.55;99791.58;105600;1260;99148;-77
2023/11/10 01:47:48;;;;;;;17.50;11.00;;;;;;;7.26;92.57;99788.20;105603;1254;99234;-77
2023/11/10 01:50:35;;;;;;;17.40;11.50;;;;;;;7.24;92.68;99785.84;105623;1254;102317;-77
2023/11/10 01:53:21;;;;;;;20.10;10.60;;;;;;;7.24;92.83;99780.70;105811;1260;100304;-77
2023/11/10 01:56:07;;;;;;;19.90;10.60;;;;;;;7.24;92.65;99773.96;105727;1257;98531;-76
2023/11/10 01:58:53;;;;;;;16.90;10.30;;;;;;;7.24;92.73;99770.07;105719;1260;99148;-78
2023/11/10 02:01:39;;;;;;;18.30;10.80;;;;;;;7.23;92.84;99770.49;105654;1254;98405;-78
2023/11/10 02:04:24;;;;;;;18.80;11.10;;;;;;;7.21;92.55;99767.80;105619;1257;102453;-76
2023/11/10 02:07:10;;;;;;;18.60;11.30;;;;;;;7.19;92.43;99766.46;105645;1254;100339;-78
2023/11/10 02:09:56;;;;;;;18.00;10.50;;;;;;;7.16;92.44;99764.62;105792;1254;99078;-77
2023/11/10 02:12:52;;;;;;;17.70;10.10;;;;;;;7.14;92.28;99758.00;105765;1254;97977;-79
2023/11/10 02:15:38;;;;;;;18.30;10.20;;;;;;;7.11;92.11;99758.52;105477;1259;97955;-77
2023/11/10 02:18:24;;;;;;;15.00;9.70;;;;;;;7.09;92.12;99759.16;105676;1259;101477;-77
2023/11/10 02:21:10;;;;;;;17.60;9.70;;;;;;;7.08;91.95;99757.76;105809;1257;99080;-78
2023/11/10 02:23:58;;;;;;;16.00;9.90;;;;;;;7.04;92.11;99756.42;105786;1254;97960;-78
2023/11/10 02:26:44;;;;;;;19.70;9.10;;;;;;;7.02;91.98;99757.11;105702;1257;97989;-77
2023/11/10 02:29:31;;;;;;;20.10;10.10;;;;;;;7.00;92.00;99754.52;105777;1254;99253;-78
2023/11/10 02:32:36;;;;;;;15.90;10.00;;;;;;;6.98;91.99;99748.98;105698;1257;103978;-78
2023/11/10 02:35:21;;;;;;;15.80;9.50;;;;;;;6.95;92.00;99751.06;105742;1257;99046;-78
2023/11/10 02:38:08;;;;;;;15.40;9.70;;;;;;;6.94;92.24;99748.88;105676;1260;98819;-78
2023/11/10 02:40:53;;;;;;;16.90;10.00;;;;;;;6.94;92.34;99746.95;105693;1253;97975;-78
2023/11/10 02:43:40;;;;;;;16.20;9.80;;;;;;;6.93;92.40;99742.96;105730;1256;98526;-79
2023/11/10 02:46:25;;;;;;;18.70;10.00;;;;;;;6.92;92.46;99738.79;105589;1255;102573;-78
2023/11/10 02:49:11;;;;;;;18.30;10.60;;;;;;;6.92;92.53;99736.20;105715;1257;101016;-78
2023/11/10 02:51:57;;;;;;;17.80;9.90;;;;;;;6.92;92.46;99736.70;105690;1261;98817;-78
2023/11/10 02:54:42;;;;;;;17.60;10.50;;;;;;;6.92;92.50;99737.27;105593;1254;98031;-78
2023/11/10 02:57:28;;;;;;;17.40;11.10;;;;;;;6.90;92.61;99731.62;105774;1254;97854;-78
2023/11/10 03:00:14;;;;;;;20.00;11.60;;;;;;;6.88;92.60;99726.11;105903;1253;103144;-76
2023/11/10 03:03:00;;;;;;;17.50;10.80;;;;;;;6.88;92.55;99722.30;105867;1254;99215;-78
2023/11/10 03:05:46;;;;;;;15.10;9.80;;;;;;;6.87;92.58;99722.86;105688;1260;99203;-78
2023/11/10 03:08:34;;;;;;;17.40;10.50;;;;;;;6.87;92.55;99722.08;105809;1257;98012;-78
2023/11/10 03:11:22;;;;;;;17.30;9.60;;;;;;;6.86;92.64;99721.13;105802;1254;98036;-78
2023/11/10 03:14:07;;;;;;;16.30;8.60;;;;;;;6.86;92.62;99720.63;105608;1254;101273;-78
2023/11/10 03:16:53;;;;;;;17.10;9.30;;;;;;;6.84;92.42;99713.07;105521;1254;99742;-77
2023/11/10 03:19:40;;;;;;;15.10;9.20;;;;;;;6.81;92.60;99712.09;105799;1254;98476;-78
2023/11/10 03:22:26;;;;;;;14.30;8.60;;;;;;;6.79;92.45;99712.92;105620;1254;97972;-78
2023/11/10 03:25:12;;;;;;;16.10;8.80;;;;;;;6.78;92.61;99711.81;105606;1258;98383;-78
2023/11/10 03:27:57;;;;;;;13.50;8.60;;;;;;;6.78;92.77;99711.11;105791;1254;101326;-78
2023/11/10 03:30:43;;;;;;;14.50;8.50;;;;;;;6.78;92.72;99710.20;105804;1254;100642;-78
2023/11/10 03:33:29;;;;;;;16.10;9.20;;;;;;;6.78;92.87;99709.60;105878;1259;98056;-77
2023/11/10 03:36:15;;;;;;;13.60;8.30;;;;;;;6.79;93.01;99706.70;105647;1254;98037;-78
2023/11/10 03:39:01;;;;;;;14.60;8.30;;;;;;;6.79;92.99;99705.44;105719;1257;97956;-78
2023/11/10 03:41:48;;;;;;;13.80;8.10;;;;;;;6.80;93.13;99700.85;105714;1259;101329;-78
2023/11/10 03:44:34;;;;;;;11.60;8.10;;;;;;;6.82;93.04;99699.82;105464;1257;99081;-77
2023/11/10 03:47:19;;;;;;;10.00;6.60;;;;;;;6.82;93.24;99698.88;105478;1254;98384;-77
2023/11/10 03:50:06;;;;;;;12.60;8.10;;;;;;;6.82;93.03;99699.95;105685;1253;97871;-78
2023/11/10 03:52:52;;;;;;;12.10;7.60;;;;;;;6.84;93.45;99696.66;105934;1254;98584;-77
2023/11/10 03:55:37;;;;;;;10.80;7.80;;;;;;;6.86;93.43;99693.97;105682;1254;102628;-77
2023/11/10 03:58:23;;;;;;;15.00;8.40;;;;;;;6.88;93.41;99694.21;105776;1254;99880;-78
2023/11/10 04:01:11;;;;;;;15.10;7.40;;;;;;;6.89;93.29;99693.91;105704;1257;97964;-77
2023/11/10 04:03:56;;;;;;;12.70;7.90;;;;;;;6.91;93.36;99693.21;106473;1257;98805;-77
2023/11/10 04:06:42;;;;;;;13.30;8.00;;;;;;;6.92;93.38;99691.80;105690;1254;98476;-78
2023/11/10 04:09:27;;;;;;;14.10;7.70;;;;;;;6.93;93.56;99680.54;105683;1254;101323;-78
2023/11/10 04:12:13;;;;;;;12.60;8.50;;;;;;;6.94;93.73;99675.27;105615;1253;99059;-78
2023/11/10 04:14:59;;;;;;;11.90;7.60;;;;;;;6.94;93.54;99672.77;105664;1253;99137;-78
2023/11/10 04:17:44;;;;;;;14.70;8.10;;;;;;;6.94;93.68;99668.08;105683;1253;98424;-78
2023/11/10 04:20:30;;;;;;;12.90;7.10;;;;;;;6.95;93.57;99666.08;105829;1258;97851;-77
2023/11/10 04:23:15;;;;;;;11.90;6.90;;;;;;;6.95;93.46;99665.66;105711;1259;102546;-78
2023/11/10 04:26:05;;;;;;;13.10;7.20;;;;;;;6.96;93.89;99665.40;105527;1257;99947;-77
2023/11/10 04:28:51;;;;;;;13.40;7.20;;;;;;;6.97;93.97;99661.33;105531;1257;97878;-77
2023/11/10 04:31:39;;;;;;;13.10;8.40;;;;;;;7.00;93.88;99659.75;105428;1254;97884;-77
2023/11/10 04:34:25;;;;;;;14.40;6.70;;;;;;;7.01;94.04;99661.45;105473;1259;97868;-77
2023/11/10 04:37:10;;;;;;;9.30;6.40;;;;;;;7.01;94.22;99654.12;105607;1257;102475;-79
2023/11/10 04:39:56;;;;;;;15.30;7.00;;;;;;;7.01;94.33;99647.77;105713;1257;99143;-77
2023/11/10 04:42:41;;;;;;;13.10;7.40;;;;;;;7.01;94.50;99647.36;105761;1257;99221;-78
2023/11/10 04:45:29;;;;;;;8.50;5.80;;;;;;;7.03;94.63;99648.60;105676;1257;97986;-79
2023/11/10 04:48:14;;;;;;;10.20;6.80;;;;;;;7.05;94.62;99656.70;105677;1257;99121;-79
2023/11/10 04:51:03;;;;;;;14.00;6.80;;;;;;;7.07;94.78;99659.50;105648;1254;102752;-77
2023/11/10 04:53:49;;;;;;;11.90;6.30;;;;;;;7.09;94.63;99655.52;105643;1258;100350;-78
2023/11/10 04:56:45;;;;;;;10.10;6.60;;;;;;;7.11;94.52;99654.89;105888;1253;99005;-78
2023/11/10 04:59:30;;;;;;;8.50;5.70;;;;;;;7.12;94.58;99657.92;105837;1257;98748;-78
2023/11/10 05:02:16;;;;;;;10.20;6.20;;;;;;;7.14;94.54;99657.86;105860;1253;99282;-77
2023/11/10 05:05:02;;;;;;;9.70;5.80;;;;;;;7.16;94.60;99656.55;105769;1253;103876;-78
2023/11/10 05:07:50;;;;;;;8.50;5.70;;;;;;;7.17;94.51;99657.70;105642;1256;99137;-77
2023/11/10 05:10:35;;;;;;;9.20;6.40;;;;;;;7.18;94.68;99656.51;105492;1257;98069;-77
2023/11/10 05:13:21;;;;;;;10.40;6.40;;;;;;;7.19;94.53;99650.51;105509;1257;97945;-78
2023/11/10 05:16:07;;;;;;;9.20;6.90;;;;;;;7.21;94.64;99649.17;105733;1254;99639;-78
2023/11/10 05:18:52;;;;;;;10.90;6.90;;;;;;;7.21;94.60;99645.78;105717;1254;102425;-78
2023/11/10 05:21:38;;;;;;;12.30;6.80;;;;;;;7.22;94.71;99648.73;105769;1254;99946;-79
2023/11/10 05:24:23;;;;;;;8.30;5.70;;;;;;;7.24;94.56;99649.91;105845;1254;98072;-79
2023/11/10 05:27:09;;;;;;;12.00;6.00;;;;;;;7.24;94.44;99652.20;105757;1253;97962;-78
2023/11/10 05:29:55;;;;;;;13.80;7.60;;;;;;;7.24;94.40;99648.98;105757;1255;98383;-78
2023/11/10 05:32:41;;;;;;;8.10;6.20;;;;;;;7.25;94.40;99646.57;105657;1259;102584;-77
2023/11/10 05:35:26;;;;;;;10.30;6.30;;;;;;;7.26;94.70;99645.02;105755;1257;100162;-77
2023/11/10 05:38:12;;;;;;;12.00;6.10;;;;;;;7.27;94.54;99646.27;105731;1257;98823;-77
2023/11/10 05:40:57;;;;;;;11.80;6.60;;;;;;;7.28;94.56;99641.52;105611;1256;97962;-78
2023/11/10 05:43:43;;;;;;;10.00;7.30;;;;;;;7.29;94.66;99640.13;105819;1258;99126;-78
2023/11/10 05:46:28;;;;;;;9.50;6.60;;;;;;;7.30;94.77;99640.19;105483;1270;102547;-78
2023/11/10 05:49:14;;;;;;;9.90;6.20;;;;;;;7.30;94.72;99643.45;105482;1257;99135;-78
2023/11/10 05:52:00;;;;;;;11.80;6.20;;;;;;;7.30;94.54;99641.61;105391;1254;97847;-77
2023/11/10 05:54:46;;;;;;;10.80;6.60;;;;;;;7.30;94.59;99645.05;105442;1253;97882;-77
2023/11/10 05:57:31;;;;;;;11.70;7.40;;;;;;;7.28;94.59;99647.58;105448;1254;98128;-77
2023/11/10 06:00:18;;;;;;;10.80;6.50;;;;;;;7.28;94.64;99647.15;105448;1254;102662;-76
2023/11/10 06:03:05;;;;;;;11.00;6.70;;;;;;;7.27;94.65;99652.14;105470;1257;100393;-77
2023/11/10 06:05:50;;;;;;;8.50;5.90;;;;;;;7.26;94.65;99654.27;105557;1257;98957;-78
2023/11/10 06:08:36;;;;;;;14.80;8.00;;;;;;;7.25;94.65;99656.15;105742;1257;98490;-79
2023/11/10 06:11:23;;;;;;;14.60;8.20;;;;;;;7.23;94.86;99659.00;105635;1259;98584;-78
2023/11/10 06:14:10;;;;;;;17.90;8.60;;;;;;;7.23;94.79;99662.08;106493;1257;102027;-78
2023/11/10 06:16:55;;;;;;;16.40;9.00;;;;;;;7.23;94.79;99662.44;105727;1253;99175;-79
2023/11/10 06:19:41;;;;;;;14.60;8.80;;;;;;;7.24;94.99;99659.88;105656;1257;98872;-79
2023/11/10 06:22:27;;;;;;;12.60;8.00;;;;;;;7.25;94.94;99661.48;105688;1257;97945;-78
2023/11/10 06:25:13;;;;;;;11.60;7.30;;;;;;;7.25;94.99;99656.64;105549;1256;98660;-78
2023/11/10 06:27:58;;;;;;;9.60;7.20;;;;;;;7.26;95.23;99656.50;105678;1260;102548;-78
2023/11/10 06:30:44;;;;;;;13.20;7.00;;;;;;;7.27;95.18;99657.31;105675;1254;100425;-78
2023/11/10 06:33:29;;;;;;;19.80;8.60;;;;;;;7.28;95.04;99658.93;105897;1257;97913;-79
2023/11/10 06:36:16;;;;;;;26.80;11.30;;;;;;;7.29;95.26;99654.71;105715;1253;97775;-79
2023/11/10 06:39:02;;;;;;;31.30;12.00;;;;;;;7.30;95.25;99650.14;106485;1253;97892;-78
2023/11/10 06:41:48;;;;;;;26.70;11.40;;;;;;;7.32;95.32;99648.76;106764;1254;102688;-77
2023/11/10 06:44:34;;;;;;;20.30;10.10;;;;;;;7.34;95.48;99654.15;105906;1253;100515;-79
2023/11/10 06:47:19;;;;;;;19.10;9.20;;;;;;;7.34;95.56;99660.11;105741;1254;98679;-79
2023/11/10 06:50:07;;;;;;;13.20;7.80;;;;;;;7.35;95.52;99661.76;105831;1253;97959;-79
2023/11/10 06:52:53;;;;;;;16.90;7.50;;;;;;;7.38;95.44;99661.48;106018;1253;98472;-80
2023/11/10 06:55:39;;;;;;;12.30;7.70;;;;;;;7.40;95.69;99663.98;105612;1268;102821;-78
2023/11/10 06:58:25;;;;;;;11.80;7.30;;;;;;;7.42;95.75;99663.95;105666;1253;99086;-78
2023/11/10 07:01:10;;;;;;;13.30;7.20;;;;;;;7.45;95.68;99663.98;105677;1257;98813;-79
2023/11/10 07:03:56;;;;;;;11.50;7.10;;;;;;;7.47;95.78;99662.16;105627;1258;97914;-79
2023/11/10 07:06:41;;;;;;;11.00;7.40;;;;;;;7.48;95.95;99661.19;105622;1257;98555;-78
2023/11/10 07:09:27;;;;;;;9.70;7.20;;;;;;;7.50;96.03;99662.64;105733;1258;102565;-77
2023/11/10 07:12:14;;;;;;;9.40;6.60;;;;;;;7.51;96.09;99662.05;105639;1254;100402;-78
2023/11/10 07:15:00;;;;;;;10.20;7.60;;;;;;;7.53;96.18;99659.86;105615;1254;98301;-77
2023/11/10 07:17:46;;;;;;;8.20;7.10;;;;;;;7.56;96.27;99665.41;105598;1256;97982;-77
2023/11/10 07:20:32;;;;;;;11.30;6.70;;;;;;;7.58;96.30;99657.73;105511;1254;98581;-78
2023/11/10 07:23:19;;;;;;;11.80;7.40;;;;;;;7.60;96.52;99655.66;105561;1257;102608;-77
2023/11/10 07:26:05;;;;;;;11.10;6.00;;;;;;;7.63;96.58;99651.22;105587;1257;100197;-78
2023/11/10 07:28:51;;;;;;;11.10;7.50;;;;;;;7.66;96.61;99650.06;105547;1254;101248;-77
2023/11/10 07:31:38;;;;;;;14.30;7.30;;;;;;;7.70;97.05;99646.40;105632;1253;98053;-77
2023/11/10 07:34:23;;;;;;;11.90;7.20;;;;;;;7.74;97.29;99650.71;105813;1253;98456;-78
2023/11/10 07:37:09;;;;;;;10.30;7.40;;;;;;;7.77;97.30;99654.30;105724;1253;101417;-78
2023/11/10 07:39:54;;;;;;;11.40;6.60;;;;;;;7.82;97.33;99657.29;105626;1257;100780;-78
2023/11/10 07:42:42;;;;;;;11.00;7.30;;;;;;;7.87;97.57;99656.91;105630;1257;99004;-78
2023/11/10 07:45:28;;;;;;;14.00;7.60;;;;;;;7.91;97.71;99658.27;105624;1257;98043;-78
2023/11/10 07:48:14;;;;;;;13.00;7.30;;;;;;;7.96;98.03;99662.41;105655;1258;97960;-77
2023/11/10 07:51:00;;;;;;;11.60;7.30;;;;;;;8.02;97.91;99668.20;105906;1257;102560;-82
2023/11/10 07:53:46;;;;;;;15.60;9.10;;;;;;;8.09;98.00;99680.04;106616;1253;99984;-86
2023/11/10 07:56:31;;;;;;;14.00;7.90;;;;;;;8.15;97.82;99677.50;106229;1253;97970;-82
2023/11/10 07:59:18;;;;;;;12.20;8.40;;;;;;;8.20;97.82;99679.31;106572;1255;98037;-84
2023/11/10 08:02:05;;;;;;;11.30;7.90;;;;;;;8.28;98.02;99677.83;106517;1253;97953;-82
2023/11/10 08:04:51;;;;;;;10.10;7.30;;;;;;;8.35;97.80;99671.02;106585;1257;102799;-82
2023/11/10 08:07:37;;;;;;;9.50;7.30;;;;;;;8.43;98.00;99666.45;106218;1254;99251;-81
2023/11/10 08:10:23;;;;;;;12.70;8.60;;;;;;;8.51;98.06;99662.85;106287;1253;98491;-83
2023/11/10 08:13:09;;;;;;;11.60;7.20;;;;;;;8.60;97.91;99658.89;106254;1253;99234;-84
2023/11/10 08:15:54;;;;;;;11.50;7.40;;;;;;;8.68;97.73;99656.84;106529;1257;98505;-82
2023/11/10 08:18:40;;;;;;;11.20;7.40;;;;;;;8.74;97.61;99659.16;106593;1253;101309;-82
2023/11/10 08:21:26;;;;;;;10.60;6.70;;;;;;;8.80;97.45;99661.20;106849;1257;99811;-81
2023/11/10 08:24:12;;;;;;;11.30;7.30;;;;;;;8.86;97.36;99669.48;105719;1254;98530;-76
2023/11/10 08:26:58;;;;;;;12.70;7.30;;;;;;;8.91;97.25;99664.38;105635;1257;98095;-76
2023/11/10 08:29:44;;;;;;;9.80;7.30;;;;;;;8.96;97.34;99662.48;105765;1258;97879;-78
2023/11/10 08:32:29;;;;;;;8.80;6.60;;;;;;;9.00;97.24;99659.81;105685;1258;101444;-76
2023/11/10 08:35:16;;;;;;;10.40;7.10;;;;;;;9.03;97.12;99655.89;105716;1254;99767;-80
2023/11/10 08:38:03;;;;;;;15.10;7.70;;;;;;;9.05;96.88;99658.05;106527;1253;97964;-82
2023/11/10 08:40:49;;;;;;;11.20;7.00;;;;;;;9.07;97.02;99665.48;106607;1253;97979;-81
2023/11/10 08:43:35;;;;;;;12.50;7.20;;;;;;;9.08;96.91;99665.36;106434;1254;97972;-81
2023/11/10 08:46:21;;;;;;;9.30;6.50;;;;;;;9.10;96.50;99658.88;106241;1254;101990;-84
2023/11/10 08:49:07;;;;;;;10.10;7.10;;;;;;;9.13;96.71;99659.34;106203;1253;100366;-77
2023/11/10 08:51:52;;;;;;;11.40;7.20;;;;;;;9.17;96.95;99661.11;105898;1256;99339;-78
2023/11/10 08:54:38;;;;;;;14.20;7.00;;;;;;;9.23;96.81;99661.83;105725;1257;97929;-77
2023/11/10 08:57:24;;;;;;;11.10;6.40;;;;;;;9.29;96.98;99658.11;106093;1253;98507;-79
2023/11/10 09:00:14;;;;;;;11.70;7.50;;;;;;;9.37;96.80;99657.60;106272;1253;102120;-77
2023/11/10 09:02:59;;;;;;;9.40;6.60;;;;;;;9.45;96.53;99656.22;105578;1254;99128;-77
2023/11/10 09:05:45;;;;;;;10.10;6.60;;;;;;;9.52;96.52;99655.66;105598;1253;97967;-78
2023/11/10 09:08:31;;;;;;;10.30;6.40;;;;;;;9.59;96.53;99657.03;105698;1253;98085;-77
2023/11/10 09:11:18;;;;;;;9.20;6.60;;;;;;;9.67;96.68;99654.82;105687;1253;98567;-77
2023/11/10 09:14:04;;;;;;;13.10;6.50;;;;;;;9.75;96.41;99651.08;105709;1253;101444;-79
2023/11/10 09:16:49;;;;;;;9.70;6.90;;;;;;;9.81;96.05;99645.73;106077;1254;100470;-78
2023/11/10 09:19:35;;;;;;;8.90;5.90;;;;;;;9.90;96.27;99646.65;106277;1257;98661;-79
2023/11/10 09:22:22;;;;;;;9.40;6.70;;;;;;;10.00;96.42;99648.16;106160;1259;97918;-78
2023/11/10 09:25:09;;;;;;;9.50;6.30;;;;;;;10.09;95.96;99642.55;106112;1256;97951;-78
2023/11/10 09:27:56;;;;;;;10.10;6.50;;;;;;;10.15;95.85;99633.80;106249;1253;101987;-79
2023/11/10 09:30:42;;;;;;;11.80;6.90;;;;;;;10.20;95.30;99626.51;106074;1253;100427;-79
2023/11/10 09:33:27;;;;;;;12.90;6.60;;;;;;;10.25;95.41;99626.83;106522;1257;99032;-79
2023/11/10 09:36:13;;;;;;;9.80;6.30;;;;;;;10.30;95.60;99623.15;106548;1253;97954;-80
2023/11/10 09:38:59;;;;;;;10.70;6.80;;;;;;;10.36;95.27;99624.42;106658;1253;98456;-79
2023/11/10 09:41:48;;;;;;;11.50;6.30;;;;;;;10.42;94.86;99625.52;106476;1257;102607;-79
2023/11/10 09:44:38;;;;;;;9.00;6.40;;;;;;;10.48;94.68;99620.98;106650;1254;99679;-79
2023/11/10 09:47:26;;;;;;;11.10;6.70;;;;;;;10.55;94.69;99616.46;106582;1257;98017;-79
2023/11/10 09:50:18;;;;;;;11.40;6.60;;;;;;;10.61;94.57;99611.95;108496;1253;97839;-80
2023/11/10 09:53:06;;;;;;;7.90;5.90;;;;;;;10.69;94.69;99610.89;106655;1258;98373;-79
2023/11/10 09:55:52;;;;;;;9.00;5.90;;;;;;;10.74;93.90;99611.54;106463;1257;101402;-79
2023/11/10 09:58:38;;;;;;;9.60;6.40;;;;;;;10.77;93.54;99610.25;106567;1253;99099;-80
2023/11/10 10:01:24;;;;;;;9.80;6.20;;;;;;;10.79;93.35;99608.17;106977;1254;99259;-80
2023/11/10 10:04:09;;;;;;;9.70;6.30;;;;;;;10.83;93.32;99606.27;106954;1259;98723;-79
2023/11/10 10:06:59;;;;;;;8.80;6.50;;;;;;;10.86;93.19;99603.66;106937;1254;98534;-80
2023/11/10 10:09:45;;;;;;;8.70;5.70;;;;;;;10.89;93.61;99602.67;106398;1254;101449;-77
2023/11/10 10:12:35;;;;;;;15.20;6.10;;;;;;;10.94;93.52;99599.67;105672;1258;100442;-78
2023/11/10 10:15:31;;;;;;;10.20;6.10;;;;;;;10.99;93.25;99600.15;106030;1253;98043;-78
2023/11/10 10:18:22;;;;;;;11.00;6.20;;;;;;;11.02;93.21;99598.40;106661;1253;99285;-78
2023/11/10 10:21:08;;;;;;;9.00;5.70;;;;;;;11.07;93.29;99594.33;106047;1258;96115;-78
2023/11/10 10:23:54;;;;;;;12.00;6.30;;;;;;;11.11;93.03;99591.39;106008;1259;102653;-78
2023/11/10 10:26:40;;;;;;;8.70;6.00;;;;;;;11.15;92.94;99588.27;105566;1257;99086;-78
2023/11/10 10:29:26;;;;;;;9.00;5.80;;;;;;;11.19;92.54;99583.83;105644;1254;99008;-79
2023/11/10 10:32:11;;;;;;;10.50;6.30;;;;;;;11.21;92.26;99583.91;105629;1253;98940;-78
2023/11/10 10:34:57;;;;;;;7.70;5.40;;;;;;;11.23;91.97;99579.56;105581;1253;98469;-79
2023/11/10 10:37:43;;;;;;;9.90;6.10;;;;;;;11.25;92.39;99575.06;106054;1253;101367;-79
2023/11/10 10:40:28;;;;;;;10.10;5.80;;;;;;;11.29;92.16;99571.69;106189;1253;100391;-78
2023/11/10 10:43:18;;;;;;;9.10;6.40;;;;;;;11.31;91.36;99566.73;105964;1253;98043;-78
2023/11/10 10:46:04;;;;;;;9.30;6.30;;;;;;;11.33;91.30;99568.94;105706;1253;97980;-77
2023/11/10 10:48:51;;;;;;;9.60;5.40;;;;;;;11.36;91.53;99571.27;105665;1259;97962;-79
2023/11/10 10:51:37;;;;;;;9.70;6.30;;;;;;;11.38;91.35;99572.16;106109;1257;101343;-78
2023/11/10 10:54:23;;;;;;;9.40;5.40;;;;;;;11.39;90.85;99573.98;107249;1253;99082;-79
2023/11/10 10:57:09;;;;;;;9.80;6.10;;;;;;;11.40;90.56;99573.34;106148;1256;98639;-79
2023/11/10 10:59:55;;;;;;;8.90;6.10;;;;;;;11.42;90.65;99571.46;107760;1253;97986;-80
2023/11/10 11:02:43;;;;;;;10.10;5.70;;;;;;;11.45;90.73;99569.23;106198;1253;98348;-80
2023/11/10 11:06:12;;;;;;;10.40;6.20;;;;;;;11.47;90.60;99567.15;107847;1259;101362;-79
2023/11/10 11:09:30;;;;;;;10.40;6.50;;;;;;;11.48;90.16;99565.86;106118;1259;101051;-80
2023/11/10 11:12:18;;;;;;;9.10;6.00;;;;;;;11.49;89.90;99565.73;106675;1253;98742;-79
2023/11/10 11:15:13;;;;;;;8.50;5.70;;;;;;;11.50;89.75;99563.70;105870;1257;97936;-82
2023/11/10 11:18:10;;;;;;;10.00;5.70;;;;;;;11.50;89.71;99562.71;106182;1259;99656;-82
2023/11/10 11:20:57;;;;;;;14.30;5.80;;;;;;;11.50;89.70;99557.55;106354;1254;101449;-81
2023/11/10 11:23:42;;;;;;;10.90;6.30;;;;;;;11.50;89.73;99552.89;106403;1258;99309;-83
2023/11/10 11:26:28;;;;;;;8.80;6.20;;;;;;;11.52;90.05;99555.43;106342;1258;99052;-81
2023/11/10 11:29:20;;;;;;;12.80;6.90;;;;;;;11.58;90.46;99553.81;106387;1259;97976;-83
2023/11/10 11:32:12;;;;;;;13.30;6.20;;;;;;;11.68;90.67;99545.30;106341;1259;97964;-81
2023/11/10 11:34:58;;;;;;;11.10;6.50;;;;;;;11.79;90.58;99536.14;106157;1254;102594;-82
2023/11/10 11:37:45;;;;;;;8.10;5.60;;;;;;;11.90;90.23;99536.23;106230;1253;99252;-82
2023/11/10 11:40:34;;;;;;;7.70;5.50;;;;;;;12.00;89.48;99534.83;106155;1253;99122;-82
2023/11/10 11:43:26;;;;;;;7.20;4.80;;;;;;;12.05;89.37;99533.61;106311;1258;98043;-82
2023/11/10 11:46:12;;;;;;;8.50;5.20;;;;;;;12.08;88.91;99532.60;106378;1253;98122;-82
2023/11/10 11:48:59;;;;;;;9.60;5.50;;;;;;;12.07;88.32;99525.13;106647;1254;101116;-80
2023/11/10 11:51:45;;;;;;;9.50;6.10;;;;;;;12.05;87.96;99523.18;106338;1253;121919;-81
2023/11/10 11:54:31;;;;;;;10.50;5.70;;;;;;;12.03;88.01;99526.11;106504;1258;99027;-81
2023/11/10 11:57:16;;;;;;;7.80;5.50;;;;;;;12.01;87.89;99530.30;106407;1259;97954;-80
2023/11/10 12:00:08;;;;;;;8.20;4.90;;;;;;;12.00;87.43;99530.70;106427;1254;97998;-81
2023/11/10 12:02:56;;;;;;;10.90;5.20;;;;;;;11.99;87.55;99532.23;106486;1253;102581;-84
2023/11/10 12:05:45;;;;;;;9.00;4.90;;;;;;;11.98;87.82;99541.66;106215;1253;99134;-83
2023/11/10 12:08:30;;;;;;;7.70;4.60;;;;;;;11.98;87.79;99546.57;106380;1254;97988;-82
2023/11/10 12:11:19;;;;;;;9.90;5.20;;;;;;;11.98;88.12;99549.27;106415;1256;97949;-84
2023/11/10 12:14:09;;;;;;;8.60;4.90;;;;;;;11.97;87.93;99553.64;106397;1253;98024;-86
2023/11/10 12:16:55;;;;;;;9.50;5.10;;;;;;;11.97;87.91;99546.70;106317;1254;101230;-83
2023/11/10 12:19:44;;;;;;;8.40;5.20;;;;;;;11.96;87.63;99544.14;106137;1253;99095;-82
2023/11/10 12:22:29;;;;;;;7.90;5.00;;;;;;;11.96;87.51;99541.31;106355;1257;99386;-83
2023/11/10 12:25:15;;;;;;;6.20;4.80;;;;;;;11.97;87.32;99546.17;106286;1253;98044;-83
2023/11/10 12:28:01;;;;;;;6.80;5.00;;;;;;;11.97;87.14;99549.77;106208;1259;97550;-85
2023/11/10 12:30:48;;;;;;;11.20;5.30;;;;;;;11.97;87.16;99545.20;106297;1253;102449;-82
2023/11/10 12:33:35;;;;;;;6.30;4.80;;;;;;;11.96;87.12;99542.38;106604;1253;99893;-81
2023/11/10 12:36:21;;;;;;;11.60;5.20;;;;;;;11.94;86.98;99536.38;106537;1254;108114;-82
2023/11/10 12:39:22;;;;;;;8.60;5.20;;;;;;;11.91;86.78;99534.62;106401;1256;97956;-79
2023/11/10 12:42:07;;;;;;;12.70;6.70;;;;;;;11.89;86.82;99534.07;106039;1254;97946;-77
2023/11/10 12:44:58;;;;;;;8.50;5.00;;;;;;;11.87;87.26;99531.48;105482;1259;101414;-76
2023/11/10 12:47:46;;;;;;;11.10;5.50;;;;;;;11.85;87.22;99528.40;105940;1258;100041;-80
2023/11/10 12:50:32;;;;;;;8.60;5.40;;;;;;;11.84;87.62;99527.19;106329;1253;98017;-84
2023/11/10 12:53:21;;;;;;;9.50;6.20;;;;;;;11.83;87.72;99528.30;106122;1260;97986;-82